Early, IA (50535)

6:07 AM CDT on August 30, 2015 (GMT -0500)
Storm Lake Municipal | | Change Station
CLOSE
Current Station
Airport
Location: Storm Lake,
Elevation: 1490 ft
Nearby Weather Stations
Active Advisory: Special Statement

Elev 1490 ft 42.60 °N, 95.24 °W | Updated 12 minutes ago

Overcast
Overcast
63 °F
Feels Like 63 °F
N
7
Wind Variable Wind from SSW

Today
High -- | Low -- °F
--% Chance of Precip.
Yesterday
High -- | Low -- °F
Precip. -- in
6:43 AM 7:58 PM
Full, 99% visible
Pressure 30.04 in
Visibility 10.0 miles
Clouds Overcast 900 ft
Dew Point 61 °F
Humidity 94%
Rainfall 0.00 in
Snow Depth Not available.
UV 0 out of 12
Pollen 9.40 out of 12
Air Quality Not available.
Flu Activity Not available.
METAR KSLB 301055Z AUTO 21006KT 10SM OVC009 17/16 A3004 RMK AO2
Pressure 30.04 in
Visibility 10.0 miles
Clouds Overcast 900 ft
Dew Point 61 °F
Humidity 94%
Rainfall 0.00 in
Snow Depth Not available.
UV 0 out of 12
Pollen 9.40 out of 12
Air Quality Not available.
Flu Activity Not available.
METAR KSLB 301055Z AUTO 21006KT 10SM OVC009 17/16 A3004 RMK AO2

10-Day Weather Forecast

×

Almanac

Astronomy

Aug. 30, 2015 Rise Set
Actual Time
Civil Twilight
Nautical Twilight
Astronomical Twilight
Moon
Length of Visible Light
Length of Day
Tomorrow will be .
, % of the Moon is Illuminated

Today's Extremes

State Highs State Lows

Community

WunderPhotos

Upload Photos

1,850,925 photos uploaded!

WunderBlogs® & News

Nearby

Air Quality

  Air Quality AQ Index Pollutant
Not available.

Snow Depth

Station Depth Elevation

Earthquake Activity

City Distance Mag. Time & Date
Minimum magnitude displayed is 2.5.

Coastal Water Temperatures

Place Temperature

Stations

Nearby Weather Stations

Station Location Temp. Windchill Dew Point Humidity Wind Precip. Elev Updated Type
                   
Special Statement
Statement as of 5:04 AM CDT on August 30, 2015

... Areas of fog through the early morning hours...

Fog will be prevalent in many areas until an hour or two after
sunrise. The fog will be dense in spots... especially low lying
areas... with visibilities down to a quarter mile at times.
Motorists are urged to slow down... use low beam headlights and
allow for extra stopping distance between vehicles.


Small

504 am CDT sun Aug 30 2015

... Areas of fog through the early morning hours...

Fog will be prevalent in many areas until an hour or two after
sunrise. The fog will be dense in spots... especially low lying
areas... with visibilities down to a quarter mile at times.
Motorists are urged to slow down... use low beam headlights and
allow for extra stopping distance between vehicles.


Small